sensor_id;sensor_type;location;lat;lon;timestamp;pressure;altitude;pressure_sealevel;temperature;humidity
52975;BME280;38839;45.186;5.720;2022-11-20T00:02:16;98863.34;;;13.81;50.90
52975;BME280;38839;45.186;5.720;2022-11-20T00:04:41;98861.69;;;13.77;51.05
52975;BME280;38839;45.186;5.720;2022-11-20T00:07:06;98867.84;;;13.76;51.29
52975;BME280;38839;45.186;5.720;2022-11-20T00:09:32;98867.75;;;13.81;50.69
52975;BME280;38839;45.186;5.720;2022-11-20T00:11:57;98870.41;;;13.79;51.08
52975;BME280;38839;45.186;5.720;2022-11-20T00:14:23;98873.28;;;13.65;51.05
52975;BME280;38839;45.186;5.720;2022-11-20T00:16:48;98881.13;;;13.67;51.41
52975;BME280;38839;45.186;5.720;2022-11-20T00:19:13;98884.00;;;13.53;51.52
52975;BME280;38839;45.186;5.720;2022-11-20T00:21:39;98876.97;;;13.57;51.61
52975;BME280;38839;45.186;5.720;2022-11-20T00:24:05;98876.63;;;13.74;51.23
52975;BME280;38839;45.186;5.720;2022-11-20T00:26:31;98876.84;;;13.63;51.37
52975;BME280;38839;45.186;5.720;2022-11-20T00:28:58;98882.94;;;13.63;51.31
52975;BME280;38839;45.186;5.720;2022-11-20T00:31:24;98881.97;;;13.67;51.60
52975;BME280;38839;45.186;5.720;2022-11-20T00:33:50;98887.91;;;13.77;50.83
52975;BME280;38839;45.186;5.720;2022-11-20T00:36:18;98881.47;;;13.50;52.00
52975;BME280;38839;45.186;5.720;2022-11-20T00:38:44;98884.81;;;13.58;51.28
52975;BME280;38839;45.186;5.720;2022-11-20T00:41:14;98890.22;;;13.49;51.93
52975;BME280;38839;45.186;5.720;2022-11-20T00:43:40;98886.59;;;13.56;51.82
52975;BME280;38839;45.186;5.720;2022-11-20T00:46:09;98885.75;;;13.54;51.52
52975;BME280;38839;45.186;5.720;2022-11-20T00:48:34;98890.22;;;13.49;51.54
52975;BME280;38839;45.186;5.720;2022-11-20T00:51:00;98893.78;;;13.45;51.83
52975;BME280;38839;45.186;5.720;2022-11-20T00:53:26;98894.13;;;13.25;52.38
52975;BME280;38839;45.186;5.720;2022-11-20T00:55:59;98902.53;;;13.45;52.13
52975;BME280;38839;45.186;5.720;2022-11-20T00:58:29;98901.59;;;13.48;52.00
52975;BME280;38839;45.186;5.720;2022-11-20T01:01:02;98905.06;;;13.50;52.07
52975;BME280;38839;45.186;5.720;2022-11-20T01:03:31;98904.31;;;13.43;52.24
52975;BME280;38839;45.186;5.720;2022-11-20T01:06:00;98891.16;;;13.45;52.11
52975;BME280;38839;45.186;5.720;2022-11-20T01:08:29;98914.22;;;13.24;52.76
52975;BME280;38839;45.186;5.720;2022-11-20T01:10:59;98915.69;;;13.41;52.51
52975;BME280;38839;45.186;5.720;2022-11-20T01:13:24;98917.38;;;13.45;52.26
52975;BME280;38839;45.186;5.720;2022-11-20T01:16:35;98920.06;;;13.42;52.54
52975;BME280;38839;45.186;5.720;2022-11-20T01:19:04;98921.88;;;13.37;52.31
52975;BME280;38839;45.186;5.720;2022-11-20T01:21:31;98934.88;;;13.43;52.21
52975;BME280;38839;45.186;5.720;2022-11-20T01:23:58;98926.97;;;13.46;52.04
52975;BME280;38839;45.186;5.720;2022-11-20T01:26:26;98933.97;;;13.45;52.26
52975;BME280;38839;45.186;5.720;2022-11-20T01:28:53;98930.19;;;13.60;51.70
52975;BME280;38839;45.186;5.720;2022-11-20T01:31:27;98932.50;;;13.76;51.44
52975;BME280;38839;45.186;5.720;2022-11-20T01:33:56;98931.88;;;13.63;51.53
52975;BME280;38839;45.186;5.720;2022-11-20T01:36:23;98923.22;;;13.59;51.33
52975;BME280;38839;45.186;5.720;2022-11-20T01:38:54;98945.31;;;13.46;51.67
52975;BME280;38839;45.186;5.720;2022-11-20T01:41:21;98944.19;;;13.59;51.25
52975;BME280;38839;45.186;5.720;2022-11-20T01:44:05;98944.56;;;13.39;51.40
52975;BME280;38839;45.186;5.720;2022-11-20T01:46:32;98939.81;;;13.60;50.68
52975;BME280;38839;45.186;5.720;2022-11-20T01:49:23;98933.09;;;13.45;51.70
52975;BME280;38839;45.186;5.720;2022-11-20T01:51:57;98937.56;;;13.40;51.67
52975;BME280;38839;45.186;5.720;2022-11-20T01:54:36;98936.53;;;13.47;51.38
52975;BME280;38839;45.186;5.720;2022-11-20T01:57:07;98937.00;;;13.69;50.86
52975;BME280;38839;45.186;5.720;2022-11-20T01:59:35;98936.16;;;13.68;50.92
52975;BME280;38839;45.186;5.720;2022-11-20T02:02:02;98939.03;;;13.55;50.90
52975;BME280;38839;45.186;5.720;2022-11-20T02:04:28;98936.31;;;13.59;50.93
52975;BME280;38839;45.186;5.720;2022-11-20T02:06:59;98939.78;;;13.61;51.29
52975;BME280;38839;45.186;5.720;2022-11-20T02:09:25;98940.94;;;13.45;51.51
52975;BME280;38839;45.186;5.720;2022-11-20T02:11:51;98936.47;;;13.52;51.54
52975;BME280;38839;45.186;5.720;2022-11-20T02:14:16;98937.59;;;13.38;51.79
52975;BME280;38839;45.186;5.720;2022-11-20T02:16:47;98944.63;;;13.35;52.02
52975;BME280;38839;45.186;5.720;2022-11-20T02:19:27;98938.09;;;13.57;51.08
52975;BME280;38839;45.186;5.720;2022-11-20T02:22:05;98941.03;;;13.40;51.77
52975;BME280;38839;45.186;5.720;2022-11-20T02:24:33;98936.53;;;13.47;51.49
52975;BME280;38839;45.186;5.720;2022-11-20T02:27:02;98934.84;;;13.46;51.20
52975;BME280;38839;45.186;5.720;2022-11-20T02:29:36;98936.63;;;13.44;51.59
52975;BME280;38839;45.186;5.720;2022-11-20T02:32:03;98942.44;;;13.60;51.18
52975;BME280;38839;45.186;5.720;2022-11-20T02:34:28;98945.31;;;13.46;51.10
52975;BME280;38839;45.186;5.720;2022-11-20T02:36:54;98939.38;;;13.36;51.48
52975;BME280;38839;45.186;5.720;2022-11-20T02:39:21;98935.72;;;13.45;51.49
52975;BME280;38839;45.186;5.720;2022-11-20T02:41:48;98938.22;;;13.51;51.01
52975;BME280;38839;45.186;5.720;2022-11-20T02:44:13;98946.81;;;13.59;50.82
52975;BME280;38839;45.186;5.720;2022-11-20T02:46:39;98948.16;;;13.34;51.03
52975;BME280;38839;45.186;5.720;2022-11-20T02:49:04;98946.16;;;13.48;50.85
52975;BME280;38839;45.186;5.720;2022-11-20T02:51:30;98943.66;;;13.40;50.55
52975;BME280;38839;45.186;5.720;2022-11-20T02:53:56;98957.91;;;13.22;50.60
52975;BME280;38839;45.186;5.720;2022-11-20T02:56:21;98954.41;;;13.23;51.03
52975;BME280;38839;45.186;5.720;2022-11-20T02:58:47;98950.94;;;12.67;51.93
52975;BME280;38839;45.186;5.720;2022-11-20T03:01:13;98954.00;;;12.94;51.49
52975;BME280;38839;45.186;5.720;2022-11-20T03:03:38;98958.34;;;12.96;51.22
52975;BME280;38839;45.186;5.720;2022-11-20T03:06:04;98948.31;;;12.67;51.40
52975;BME280;38839;45.186;5.720;2022-11-20T03:08:29;98948.13;;;12.79;51.32
52975;BME280;38839;45.186;5.720;2022-11-20T03:10:54;98950.31;;;13.07;50.88
52975;BME280;38839;45.186;5.720;2022-11-20T03:13:20;98941.81;;;12.94;51.29
52975;BME280;38839;45.186;5.720;2022-11-20T03:15:45;98947.97;;;12.90;51.07
52975;BME280;38839;45.186;5.720;2022-11-20T03:18:11;98949.47;;;13.05;51.09
52975;BME280;38839;45.186;5.720;2022-11-20T03:20:36;98949.13;;;12.72;51.76
52975;BME280;38839;45.186;5.720;2022-11-20T03:23:01;98950.97;;;12.65;51.71
52975;BME280;38839;45.186;5.720;2022-11-20T03:25:27;98947.84;;;12.98;50.94
52975;BME280;38839;45.186;5.720;2022-11-20T03:27:52;98956.53;;;13.00;50.64
52975;BME280;38839;45.186;5.720;2022-11-20T03:30:18;98951.28;;;13.00;50.72
52975;BME280;38839;45.186;5.720;2022-11-20T03:32:44;98955.44;;;13.15;50.64
52975;BME280;38839;45.186;5.720;2022-11-20T03:35:09;98951.38;;;12.94;51.20
52975;BME280;38839;45.186;5.720;2022-11-20T03:37:35;98963.09;;;13.27;50.52
52975;BME280;38839;45.186;5.720;2022-11-20T03:40:00;98955.47;;;13.12;51.37
52975;BME280;38839;45.186;5.720;2022-11-20T03:42:25;98956.44;;;13.06;51.69
52975;BME280;38839;45.186;5.720;2022-11-20T03:45:09;98953.56;;;13.21;51.43
52975;BME280;38839;45.186;5.720;2022-11-20T03:47:35;98952.84;;;13.12;51.54
52975;BME280;38839;45.186;5.720;2022-11-20T03:50:00;98959.75;;;13.17;51.38
52975;BME280;38839;45.186;5.720;2022-11-20T03:52:26;98961.44;;;13.20;51.05
52975;BME280;38839;45.186;5.720;2022-11-20T03:54:51;98958.66;;;13.31;50.72
52975;BME280;38839;45.186;5.720;2022-11-20T03:57:16;98974.63;;;13.17;51.33
52975;BME280;38839;45.186;5.720;2022-11-20T03:59:42;98964.06;;;13.20;51.03
52975;BME280;38839;45.186;5.720;2022-11-20T04:02:07;98972.66;;;13.31;50.72
52975;BME280;38839;45.186;5.720;2022-11-20T04:04:33;98976.16;;;12.73;52.05
52975;BME280;38839;45.186;5.720;2022-11-20T04:06:58;98978.59;;;12.20;52.38
52975;BME280;38839;45.186;5.720;2022-11-20T04:09:23;98983.84;;;12.83;51.24
52975;BME280;38839;45.186;5.720;2022-11-20T04:11:49;98987.47;;;12.73;51.33
52975;BME280;38839;45.186;5.720;2022-11-20T04:14:15;98992.34;;;12.98;51.13
52975;BME280;38839;45.186;5.720;2022-11-20T04:16:41;98983.53;;;13.05;50.60
52975;BME280;38839;45.186;5.720;2022-11-20T04:19:11;98990.09;;;12.73;51.47
52975;BME280;38839;45.186;5.720;2022-11-20T04:21:36;98987.38;;;12.82;50.70
52975;BME280;38839;45.186;5.720;2022-11-20T04:24:02;98988.56;;;12.60;51.34
52975;BME280;38839;45.186;5.720;2022-11-20T04:26:29;98996.94;;;12.83;50.83
52975;BME280;38839;45.186;5.720;2022-11-20T04:28:55;99009.41;;;12.67;50.96
52975;BME280;38839;45.186;5.720;2022-11-20T04:31:26;99014.66;;;12.66;51.44
52975;BME280;38839;45.186;5.720;2022-11-20T04:33:52;99018.22;;;12.59;51.51
52975;BME280;38839;45.186;5.720;2022-11-20T04:36:23;99009.66;;;12.47;50.86
52975;BME280;38839;45.186;5.720;2022-11-20T04:38:57;99014.34;;;12.21;52.15
52975;BME280;38839;45.186;5.720;2022-11-20T04:41:26;98999.44;;;12.29;52.03
52975;BME280;38839;45.186;5.720;2022-11-20T04:43:57;99000.50;;;12.14;52.46
52975;BME280;38839;45.186;5.720;2022-11-20T04:46:29;99002.75;;;12.43;51.89
52975;BME280;38839;45.186;5.720;2022-11-20T04:48:55;99003.19;;;12.73;50.96
52975;BME280;38839;45.186;5.720;2022-11-20T04:51:20;99000.63;;;12.70;50.90
52975;BME280;38839;45.186;5.720;2022-11-20T04:53:46;99018.78;;;12.81;50.89
52975;BME280;38839;45.186;5.720;2022-11-20T04:56:12;99003.19;;;12.73;50.70
52975;BME280;38839;45.186;5.720;2022-11-20T04:58:38;99013.34;;;12.96;50.40
52975;BME280;38839;45.186;5.720;2022-11-20T05:01:07;99016.06;;;12.90;50.29
52975;BME280;38839;45.186;5.720;2022-11-20T05:03:33;99013.13;;;12.50;51.03
52975;BME280;38839;45.186;5.720;2022-11-20T05:06:02;99021.16;;;12.98;50.41
52975;BME280;38839;45.186;5.720;2022-11-20T05:08:28;99015.72;;;13.12;50.07
52975;BME280;38839;45.186;5.720;2022-11-20T05:10:59;99021.81;;;13.12;50.17
52975;BME280;38839;45.186;5.720;2022-11-20T05:13:24;99015.22;;;12.88;50.44
52975;BME280;38839;45.186;5.720;2022-11-20T05:15:50;99016.84;;;12.95;50.22
52975;BME280;38839;45.186;5.720;2022-11-20T05:18:15;99022.09;;;12.94;50.17
52975;BME280;38839;45.186;5.720;2022-11-20T05:20:40;99019.81;;;12.69;50.80
52975;BME280;38839;45.186;5.720;2022-11-20T05:23:06;99019.22;;;12.50;51.09
52975;BME280;38839;45.186;5.720;2022-11-20T05:25:31;99019.06;;;12.61;51.27
52975;BME280;38839;45.186;5.720;2022-11-20T05:27:57;99017.66;;;12.99;50.20
52975;BME280;38839;45.186;5.720;2022-11-20T05:30:22;99014.75;;;13.19;50.06
52975;BME280;38839;45.186;5.720;2022-11-20T05:32:47;99024.78;;;12.91;50.30
52975;BME280;38839;45.186;5.720;2022-11-20T05:35:13;99017.19;;;12.72;50.67
52975;BME280;38839;45.186;5.720;2022-11-20T05:37:38;99017.09;;;12.77;50.67
52975;BME280;38839;45.186;5.720;2022-11-20T05:40:04;99023.16;;;12.80;50.39
52975;BME280;38839;45.186;5.720;2022-11-20T05:42:30;99020.63;;;12.76;50.63
52975;BME280;38839;45.186;5.720;2022-11-20T05:45:00;99024.44;;;12.53;51.25
52975;BME280;38839;45.186;5.720;2022-11-20T05:47:28;99023.03;;;12.24;51.65
52975;BME280;38839;45.186;5.720;2022-11-20T05:49:53;99012.53;;;12.27;51.43
52975;BME280;38839;45.186;5.720;2022-11-20T05:52:19;99011.88;;;12.77;50.84
52975;BME280;38839;45.186;5.720;2022-11-20T05:54:45;99017.59;;;13.02;50.03
52975;BME280;38839;45.186;5.720;2022-11-20T05:57:10;99003.41;;;12.58;51.10
52975;BME280;38839;45.186;5.720;2022-11-20T05:59:36;99012.56;;;12.89;50.49
52975;BME280;38839;45.186;5.720;2022-11-20T06:02:01;99007.13;;;13.02;49.94
52975;BME280;38839;45.186;5.720;2022-11-20T06:04:27;99012.44;;;12.99;50.01
52975;BME280;38839;45.186;5.720;2022-11-20T06:06:52;99012.88;;;12.68;50.83
52975;BME280;38839;45.186;5.720;2022-11-20T06:09:17;99013.94;;;12.53;51.21
52975;BME280;38839;45.186;5.720;2022-11-20T06:11:43;99015.97;;;12.33;51.82
52975;BME280;38839;45.186;5.720;2022-11-20T06:14:08;99012.03;;;11.93;52.19
52975;BME280;38839;45.186;5.720;2022-11-20T06:16:34;99008.66;;;11.82;53.16
52975;BME280;38839;45.186;5.720;2022-11-20T06:18:59;99013.75;;;11.97;52.41
52975;BME280;38839;45.186;5.720;2022-11-20T06:21:24;99013.53;;;12.16;52.07
52975;BME280;38839;45.186;5.720;2022-11-20T06:23:50;99013.28;;;12.37;51.52
52975;BME280;38839;45.186;5.720;2022-11-20T06:26:25;99016.34;;;12.67;51.02
52975;BME280;38839;45.186;5.720;2022-11-20T06:28:53;99018.59;;;12.28;52.00
52975;BME280;38839;45.186;5.720;2022-11-20T06:31:23;99020.84;;;12.59;51.25
52975;BME280;38839;45.186;5.720;2022-11-20T06:33:51;99026.66;;;12.79;50.56
52975;BME280;38839;45.186;5.720;2022-11-20T06:36:21;99020.44;;;12.20;52.02
52975;BME280;38839;45.186;5.720;2022-11-20T06:38:50;99029.75;;;11.65;53.20
52975;BME280;38839;45.186;5.720;2022-11-20T06:41:21;99021.28;;;11.37;54.07
52975;BME280;38839;45.186;5.720;2022-11-20T06:43:50;99019.34;;;11.57;53.63
52975;BME280;38839;45.186;5.720;2022-11-20T06:46:20;99019.22;;;11.71;53.38
52975;BME280;38839;45.186;5.720;2022-11-20T06:48:49;99015.88;;;11.55;53.76
52975;BME280;38839;45.186;5.720;2022-11-20T06:51:19;99017.75;;;11.42;53.85
52975;BME280;38839;45.186;5.720;2022-11-20T06:53:50;99025.59;;;11.41;54.00
52975;BME280;38839;45.186;5.720;2022-11-20T06:56:24;99025.38;;;11.62;53.60
52975;BME280;38839;45.186;5.720;2022-11-20T06:58:56;99026.06;;;11.83;53.31
52975;BME280;38839;45.186;5.720;2022-11-20T07:01:27;99029.28;;;12.10;52.45
52975;BME280;38839;45.186;5.720;2022-11-20T07:04:00;99035.97;;;12.35;51.80
52975;BME280;38839;45.186;5.720;2022-11-20T07:06:30;99027.56;;;12.78;50.77
52975;BME280;38839;45.186;5.720;2022-11-20T07:08:59;99024.63;;;13.00;50.48
52975;BME280;38839;45.186;5.720;2022-11-20T07:11:29;99035.31;;;12.84;50.37
52975;BME280;38839;45.186;5.720;2022-11-20T07:14:01;99033.59;;;12.83;50.26
52975;BME280;38839;45.186;5.720;2022-11-20T07:16:33;99037.69;;;12.38;51.39
52975;BME280;38839;45.186;5.720;2022-11-20T07:19:06;99044.03;;;12.85;50.45
52975;BME280;38839;45.186;5.720;2022-11-20T07:21:38;99043.75;;;13.05;50.04
52975;BME280;38839;45.186;5.720;2022-11-20T07:24:20;99047.22;;;13.08;49.77
52975;BME280;38839;45.186;5.720;2022-11-20T07:26:48;99052.13;;;13.32;49.45
52975;BME280;38839;45.186;5.720;2022-11-20T07:29:16;99055.50;;;13.37;49.41
52975;BME280;38839;45.186;5.720;2022-11-20T07:31:42;99053.78;;;13.36;49.53
52975;BME280;38839;45.186;5.720;2022-11-20T07:34:08;99054.06;;;13.17;49.70
52975;BME280;38839;45.186;5.720;2022-11-20T07:36:34;99065.31;;;13.22;49.92
52975;BME280;38839;45.186;5.720;2022-11-20T07:38:59;99068.84;;;13.21;49.79
52975;BME280;38839;45.186;5.720;2022-11-20T07:41:24;99069.69;;;13.23;49.55
52975;BME280;38839;45.186;5.720;2022-11-20T07:43:50;99066.22;;;13.21;49.97
52975;BME280;38839;45.186;5.720;2022-11-20T07:46:15;99074.09;;;13.20;50.01
52975;BME280;38839;45.186;5.720;2022-11-20T07:48:40;99074.84;;;13.31;49.79
52975;BME280;38839;45.186;5.720;2022-11-20T07:51:06;99074.41;;;12.98;50.23
52975;BME280;38839;45.186;5.720;2022-11-20T07:53:31;99067.41;;;13.00;50.17
52975;BME280;38839;45.186;5.720;2022-11-20T07:56:00;99066.34;;;13.12;50.61
52975;BME280;38839;45.186;5.720;2022-11-20T07:58:28;99066.31;;;13.15;50.04
52975;BME280;38839;45.186;5.720;2022-11-20T08:00:54;99069.00;;;13.11;50.49
52975;BME280;38839;45.186;5.720;2022-11-20T08:03:20;99066.22;;;13.21;50.13
52975;BME280;38839;45.186;5.720;2022-11-20T08:05:45;99065.56;;;13.07;50.65
52975;BME280;38839;45.186;5.720;2022-11-20T08:08:10;99069.19;;;12.97;50.29
52975;BME280;38839;45.186;5.720;2022-11-20T08:10:36;99065.50;;;13.10;50.56
52975;BME280;38839;45.186;5.720;2022-11-20T08:13:01;99067.34;;;13.02;50.85
52975;BME280;38839;45.186;5.720;2022-11-20T08:15:49;99067.94;;;13.22;50.41
52975;BME280;38839;45.186;5.720;2022-11-20T08:18:16;99078.00;;;12.91;51.08
52975;BME280;38839;45.186;5.720;2022-11-20T09:28:58;99077.75;;;16.43;43.77
52975;BME280;38839;45.186;5.720;2022-11-20T09:31:24;99083.94;;;16.40;43.98
52975;BME280;38839;45.186;5.720;2022-11-20T09:33:51;99085.00;;;16.66;43.35
52975;BME280;38839;45.186;5.720;2022-11-20T09:36:17;99081.88;;;16.53;43.61
52975;BME280;38839;45.186;5.720;2022-11-20T09:38:47;99089.38;;;16.34;43.86
52975;BME280;38839;45.186;5.720;2022-11-20T09:44:23;99093.44;;;16.15;43.44
52975;BME280;38839;45.186;5.720;2022-11-20T09:55:30;99102.59;;;16.95;42.09
52975;BME280;38839;45.186;5.720;2022-11-20T09:57:59;99105.56;;;16.84;42.32
52975;BME280;38839;45.186;5.720;2022-11-20T10:00:24;99107.09;;;16.60;42.45
52975;BME280;38839;45.186;5.720;2022-11-20T10:03:37;99105.78;;;16.75;42.17
52975;BME280;38839;45.186;5.720;2022-11-20T10:06:05;99100.19;;;16.56;42.33
52975;BME280;38839;45.186;5.720;2022-11-20T10:08:43;99108.31;;;16.48;42.32
52975;BME280;38839;45.186;5.720;2022-11-20T10:16:41;99107.03;;;16.95;41.67
52975;BME280;38839;45.186;5.720;2022-11-20T10:19:45;99121.53;;;16.78;41.84
52975;BME280;38839;45.186;5.720;2022-11-20T10:25:12;99120.00;;;16.38;41.74
52975;BME280;38839;45.186;5.720;2022-11-20T10:30:25;99108.75;;;16.33;42.00
52975;BME280;38839;45.186;5.720;2022-11-20T10:32:59;99112.84;;;16.43;41.48
52975;BME280;38839;45.186;5.720;2022-11-20T10:35:35;99111.66;;;16.22;41.84
52975;BME280;38839;45.186;5.720;2022-11-20T10:38:21;99127.63;;;16.16;42.15
52975;BME280;38839;45.186;5.720;2022-11-20T10:40:52;99121.25;;;15.91;42.40
52975;BME280;38839;45.186;5.720;2022-11-20T10:43:39;99119.22;;;16.02;41.92
52975;BME280;38839;45.186;5.720;2022-11-20T10:46:10;99128.00;;;16.01;42.29
52975;BME280;38839;45.186;5.720;2022-11-20T10:48:41;99111.91;;;16.13;42.18
52975;BME280;38839;45.186;5.720;2022-11-20T10:53:54;99122.72;;;16.35;41.76
52975;BME280;38839;45.186;5.720;2022-11-20T10:56:38;99118.28;;;16.04;42.21
52975;BME280;38839;45.186;5.720;2022-11-20T11:01:53;99111.34;;;16.02;41.78
52975;BME280;38839;45.186;5.720;2022-11-20T11:04:40;99105.69;;;16.16;41.84
52975;BME280;38839;45.186;5.720;2022-11-20T11:10:05;99104.44;;;16.62;41.09
52975;BME280;38839;45.186;5.720;2022-11-20T11:12:46;99103.16;;;16.75;41.16
52975;BME280;38839;45.186;5.720;2022-11-20T11:15:24;99112.75;;;16.46;41.08
52975;BME280;38839;45.186;5.720;2022-11-20T11:17:50;99122.13;;;16.57;41.06
52975;BME280;38839;45.186;5.720;2022-11-20T11:20:21;99109.59;;;16.65;40.87
52975;BME280;38839;45.186;5.720;2022-11-20T11:22:58;99104.00;;;16.46;41.12
52975;BME280;38839;45.186;5.720;2022-11-20T11:25:29;99090.97;;;16.41;40.76
52975;BME280;38839;45.186;5.720;2022-11-20T11:27:58;99092.78;;;16.39;40.78
52975;BME280;38839;45.186;5.720;2022-11-20T11:30:26;99085.78;;;16.05;40.83
52975;BME280;38839;45.186;5.720;2022-11-20T11:33:19;99064.78;;;16.37;40.90
52975;BME280;38839;45.186;5.720;2022-11-20T11:35:47;99056.22;;;16.28;40.83
52975;BME280;38839;45.186;5.720;2022-11-20T11:38:17;99060.66;;;16.26;41.26
52975;BME280;38839;45.186;5.720;2022-11-20T11:40:46;99053.19;;;16.42;40.55
52975;BME280;38839;45.186;5.720;2022-11-20T11:43:32;99043.47;;;16.44;40.27
52975;BME280;38839;45.186;5.720;2022-11-20T11:48:56;99035.59;;;16.74;39.99
52975;BME280;38839;45.186;5.720;2022-11-20T11:51:25;99026.94;;;16.69;39.67
52975;BME280;38839;45.186;5.720;2022-11-20T11:53:51;99021.66;;;16.69;39.79
52975;BME280;38839;45.186;5.720;2022-11-20T11:56:17;99017.13;;;17.04;39.27
52975;BME280;38839;45.186;5.720;2022-11-20T11:58:46;99016.44;;;17.25;38.94
52975;BME280;38839;45.186;5.720;2022-11-20T12:03:53;99005.91;;;17.25;38.50
52975;BME280;38839;45.186;5.720;2022-11-20T12:06:20;99002.75;;;17.41;38.52
52975;BME280;38839;45.186;5.720;2022-11-20T12:08:57;99002.91;;;17.36;38.27
52975;BME280;38839;45.186;5.720;2022-11-20T12:14:15;99005.03;;;18.03;37.35
52975;BME280;38839;45.186;5.720;2022-11-20T12:16:42;98993.25;;;18.12;37.28
52975;BME280;38839;45.186;5.720;2022-11-20T12:19:12;98984.09;;;18.22;36.84
52975;BME280;38839;45.186;5.720;2022-11-20T12:39:49;98954.03;;;17.51;37.58
52975;BME280;38839;45.186;5.720;2022-11-20T12:48:38;98925.41;;;17.40;37.10
52975;BME280;38839;45.186;5.720;2022-11-20T12:51:14;98917.50;;;17.40;37.07
52975;BME280;38839;45.186;5.720;2022-11-20T12:56:37;98916.06;;;17.32;37.03
52975;BME280;38839;45.186;5.720;2022-11-20T13:02:01;98900.88;;;17.13;37.01
52975;BME280;38839;45.186;5.720;2022-11-20T13:04:47;98898.72;;;17.24;37.02
52975;BME280;38839;45.186;5.720;2022-11-20T13:07:18;98898.44;;;17.32;36.90
52975;BME280;38839;45.186;5.720;2022-11-20T13:09:46;98897.34;;;17.39;36.72
52975;BME280;38839;45.186;5.720;2022-11-20T13:12:23;98904.75;;;17.28;37.09
52975;BME280;38839;45.186;5.720;2022-11-20T13:15:23;98912.06;;;17.45;36.54
52975;BME280;38839;45.186;5.720;2022-11-20T13:17:58;98918.44;;;17.39;36.70
52975;BME280;38839;45.186;5.720;2022-11-20T13:20:28;98915.28;;;17.28;36.79
52975;BME280;38839;45.186;5.720;2022-11-20T13:22:55;98915.78;;;17.39;36.59
52975;BME280;38839;45.186;5.720;2022-11-20T13:25:30;98907.34;;;17.29;36.72
52975;BME280;38839;45.186;5.720;2022-11-20T13:27:59;98904.88;;;17.50;36.48
52975;BME280;38839;45.186;5.720;2022-11-20T13:30:26;98902.50;;;17.42;36.22
52975;BME280;38839;45.186;5.720;2022-11-20T13:33:04;98904.09;;;17.46;35.95
52975;BME280;38839;45.186;5.720;2022-11-20T13:35:36;98909.63;;;17.39;35.98
52975;BME280;38839;45.186;5.720;2022-11-20T13:38:14;98911.84;;;17.51;35.56
52975;BME280;38839;45.186;5.720;2022-11-20T13:40:57;98929.50;;;17.49;35.52
52975;BME280;38839;45.186;5.720;2022-11-20T13:46:01;98921.31;;;17.32;35.63
52975;BME280;38839;45.186;5.720;2022-11-20T13:48:32;98915.63;;;17.44;35.39
52975;BME280;38839;45.186;5.720;2022-11-20T13:56:01;98907.19;;;16.79;35.96
52975;BME280;38839;45.186;5.720;2022-11-20T14:01:17;98910.97;;;17.00;35.29
52975;BME280;38839;45.186;5.720;2022-11-20T14:03:44;98910.88;;;17.02;35.43
52975;BME280;38839;45.186;5.720;2022-11-20T14:06:26;98911.69;;;17.04;35.39
52975;BME280;38839;45.186;5.720;2022-11-20T14:08:53;98912.47;;;16.81;36.33
52975;BME280;38839;45.186;5.720;2022-11-20T14:11:23;98913.72;;;16.96;36.49
52975;BME280;38839;45.186;5.720;2022-11-20T14:16:27;98911.50;;;17.10;36.68
52975;BME280;38839;45.186;5.720;2022-11-20T14:18:54;98899.94;;;17.14;36.51
52975;BME280;38839;45.186;5.720;2022-11-20T14:21:28;98899.44;;;17.03;36.44
52975;BME280;38839;45.186;5.720;2022-11-20T14:24:05;98896.91;;;17.00;36.84
52975;BME280;38839;45.186;5.720;2022-11-20T14:26:31;98902.28;;;16.97;36.70
52975;BME280;38839;45.186;5.720;2022-11-20T14:28:57;98897.91;;;16.96;37.30
52975;BME280;38839;45.186;5.720;2022-11-20T14:31:25;98893.84;;;17.12;36.84
52975;BME280;38839;45.186;5.720;2022-11-20T14:33:54;98901.16;;;17.04;36.73
52975;BME280;38839;45.186;5.720;2022-11-20T14:36:22;98892.84;;;16.89;36.81
52975;BME280;38839;45.186;5.720;2022-11-20T14:38:50;98907.03;;;16.85;37.00
52975;BME280;38839;45.186;5.720;2022-11-20T14:41:21;98909.22;;;16.99;37.03
52975;BME280;38839;45.186;5.720;2022-11-20T14:43:51;98910.75;;;17.06;36.89
52975;BME280;38839;45.186;5.720;2022-11-20T14:46:18;98908.94;;;16.80;37.22
52975;BME280;38839;45.186;5.720;2022-11-20T14:48:53;98900.94;;;16.83;37.16
52975;BME280;38839;45.186;5.720;2022-11-20T14:51:36;98899.28;;;16.79;36.92
52975;BME280;38839;45.186;5.720;2022-11-20T14:54:11;98887.22;;;16.74;37.25
52975;BME280;38839;45.186;5.720;2022-11-20T14:56:36;98886.44;;;16.70;37.15
52975;BME280;38839;45.186;5.720;2022-11-20T14:59:02;98881.22;;;16.68;37.08
52975;BME280;38839;45.186;5.720;2022-11-20T15:01:29;98879.22;;;16.75;37.14
52975;BME280;38839;45.186;5.720;2022-11-20T15:04:10;98879.56;;;16.66;37.39
52975;BME280;38839;45.186;5.720;2022-11-20T15:06:37;98889.63;;;16.53;37.47
52975;BME280;38839;45.186;5.720;2022-11-20T15:09:14;98885.47;;;16.44;37.72
52975;BME280;38839;45.186;5.720;2022-11-20T15:12:02;98881.25;;;16.67;37.39
52975;BME280;38839;45.186;5.720;2022-11-20T15:14:30;98898.22;;;16.58;38.05
52975;BME280;38839;45.186;5.720;2022-11-20T15:16:56;98902.25;;;16.42;37.92
52975;BME280;38839;45.186;5.720;2022-11-20T15:19:23;98905.31;;;16.56;37.87
52975;BME280;38839;45.186;5.720;2022-11-20T15:21:49;98910.53;;;16.58;37.86
52975;BME280;38839;45.186;5.720;2022-11-20T15:24:15;98910.50;;;16.59;37.96
52975;BME280;38839;45.186;5.720;2022-11-20T15:26:41;98915.19;;;16.49;38.05
52975;BME280;38839;45.186;5.720;2022-11-20T15:29:15;98902.00;;;16.49;38.29
52975;BME280;38839;45.186;5.720;2022-11-20T15:31:44;98904.66;;;16.49;38.36
52975;BME280;38839;45.186;5.720;2022-11-20T15:34:16;98901.09;;;16.50;38.23
52975;BME280;38839;45.186;5.720;2022-11-20T15:36:42;98911.44;;;16.57;38.09
52975;BME280;38839;45.186;5.720;2022-11-20T15:39:08;98915.59;;;16.64;38.26
52975;BME280;38839;45.186;5.720;2022-11-20T15:41:35;98912.97;;;16.64;38.29
52975;BME280;38839;45.186;5.720;2022-11-20T15:44:01;98921.69;;;16.66;38.37